MPMGSKRG

Guest
Details From MPMG - ALBROOK MARCOS A GELABERT INTL
To SKRG - JOSE MARIA CORDOVA
Flight Number -
Tags generated
Created
Modified
Stats Distance 299 nm / 554 km
Max Altitude 33,600 ft / 10,241 m
Waypoints 5
Social Downloads 0
Likes 0
Share VATSIM

Download

Looking for another format? Having issues loading an existing format? Contact us
Advertisement - Login to hide

Notes

Basic altitude profile: - Ascent Rate: 2500ft/min - Ascent Speed: 250kts - Cruise Altitude: 35000ft - Cruise Speed: 420kts - Descent Rate: 1500ft/min - Descent Speed: 250kts Options: - Use NATs: yes - Use PACOTS: yes - Use low airways: yes - Use high airways: yes

Route

MPMG PUNBA UA323 IVROS A323 ASTOR SKRG

ID Type Via Altitude Latitude Longitude Leg Dist Tot Dist Heading (true) Name
O MPMG APT - 0 ft / 0 m 8.97334˚ -79.55558˚ - 0 nm - ALBROOK MARCOS A GELABERT INTL
PUNBA FIX - 27,300 ft / 8,321 m 8.13386˚ -78.58511˚ 76 nm 76 nm 131° / 131° -
IVROS FIX UA323 (AWY-HI) 33,600 ft / 10,241 m 7.56806˚ -77.73308˚ 61 nm 137 nm 124° / 124° -
ASTOR FIX A323 (AWY-LO) 17,300 ft / 5,273 m 6.84694˚ -76.68500˚ 75 nm 213 nm 125° / 125° -
O SKRG APT - 0 ft / 0 m 6.16453˚ -75.42312˚ 85 nm 299 nm 118° / 119° JOSE MARIA CORDOVA

Altitude Profile

Advertisement - Login to hide

Weather


0- 5 10 15 20 25 30 35+ Temperature / ° C

Clouds and Precipitation
Forecast for 2017-12-12 18:00 UTC. Updated an hour ago

Ground ~20,000 ft ~40,000 ft Winds

MPMG

Details ICAO MPMG (PAC)
Name ALBROOK MARCOS A GELABERT INTL
Region Panama
Timezone America/Panama (UTC-5.0)
Stats Elevation 31 ft / 9 m (AMSL)
Location 8.973341° -79.555585°
Runways 1
Magnetic Variation 4.405° W

METAR

MPMG 121600Z 30012KT 260V330 9999 FEW020 27/22 Q1014 NOSIG

Decode

TAF

Not found

Departure Runways

ID Width Length Bearing (true) Bearing (mag) Surface Threshold Offset Overrun Length
18 98 ft / 30 m 5,925 ft / 1,806 m 185.03° 189.43° Asphalt 541 ft / 165 m 0 ft / 0 m
36 98 ft / 30 m 5,925 ft / 1,806 m 5.03° 9.43° Asphalt 443 ft / 135 m 0 ft / 0 m

SKRG

Details ICAO SKRG (MDE)
Name JOSE MARIA CORDOVA
Region Colombia
Timezone America/Bogota (UTC-5.0)
Stats Elevation 6,955 ft / 2,120 m (AMSL)
Location 6.164532° -75.423119°
Runways 1
Magnetic Variation 6.630° W

METAR

SKRG 121600Z 01005KT 9999 BKN015TCU SCT200 19/13 A3033 RMK TCU/NW

Decode

TAF

Not found

Destination Runways

ID Width Length Bearing (true) Bearing (mag) Surface Threshold Offset Overrun Length
18 148 ft / 45 m 11,547 ft / 3,520 m 179.62° 186.25° Asphalt 0 ft / 0 m 98 ft / 30 m
36 148 ft / 45 m 11,547 ft / 3,520 m 359.62° 6.25° Asphalt 0 ft / 0 m 98 ft / 30 m

Approach Navaids

Runway Type Ident Frequency Range Bearing (true) Bearing (mag) Slope Elevation
36 Localiser IMDE 110.90 MHz 18 nm / 33 km 359.62° 6.25° - 6,955 ft / 2,120 m (AMSL)
36 Glidescope IMDE 110.90 MHz 10 nm / 19 km 359.62° 6.25° 3.00° 6,955 ft / 2,120 m (AMSL)

Popular Alternatives